Time;durP1;ratioP1;P1;durP2;ratioP2;P2;SDS_P1;SDS_P2;PMS_P1;PMS_P2;Temp;Humidity;BMP_temperature;BMP_pressure;BME280_temperature;BME280_humidity;BME280_pressure;Samples;Min_cycle;Max_cycle;Signal;HPM_P1;HPM_P2
2022/12/30 00:01:14;;;;;;;21.17;7.33;;;;;;;4.92;100.00;101764.61;1746632;81;21156;-88
2022/12/30 00:03:40;;;;;;;21.07;7.83;;;;;;;4.93;100.00;101769.44;1742653;80;20987;-88
2022/12/30 00:06:14;;;;;;;26.27;7.65;;;;;;;4.92;100.00;101773.95;1745692;81;21173;-86
2022/12/30 00:08:47;;;;;;;21.97;7.08;;;;;;;4.91;100.00;101773.66;1744224;81;21209;-87
2022/12/30 00:11:24;;;;;;;20.27;6.92;;;;;;;4.90;100.00;101765.82;1747352;81;21015;-88
2022/12/30 00:33:50;;;;;;;21.62;6.70;;;;;;;4.78;100.00;101746.83;1501004;94;21659;-92
2022/12/30 00:36:17;;;;;;;19.73;7.42;;;;;;;4.76;100.00;101738.17;1448749;97;21182;-88
2022/12/30 00:38:43;;;;;;;18.70;7.17;;;;;;;4.74;100.00;101734.38;1449513;97;21142;-92
2022/12/30 00:43:54;;;;;;;19.23;7.45;;;;;;;4.75;100.00;101725.84;1449042;96;21317;-87
2022/12/30 00:46:23;;;;;;;19.70;7.15;;;;;;;4.73;100.00;101721.20;1451622;97;21654;-88
2022/12/30 00:57:04;;;;;;;20.12;7.00;;;;;;;4.72;100.00;101716.89;1459215;96;21261;-87
2022/12/30 00:59:30;;;;;;;20.10;7.58;;;;;;;4.71;100.00;101713.91;1443212;96;21106;-88
2022/12/30 01:01:57;;;;;;;20.20;7.37;;;;;;;4.70;100.00;101713.58;1456427;96;21678;-88
2022/12/30 01:04:23;;;;;;;22.55;8.15;;;;;;;4.71;100.00;101709.91;1455588;96;21696;-88
2022/12/30 01:09:17;;;;;;;22.22;7.53;;;;;;;4.73;100.00;101697.98;1395375;100;21655;-85
2022/12/30 01:11:44;;;;;;;20.05;7.83;;;;;;;4.73;100.00;101705.18;1406415;99;21221;-94
2022/12/30 01:14:10;;;;;;;20.08;7.33;;;;;;;4.74;100.00;101698.84;1413012;99;21172;-87
2022/12/30 01:16:36;;;;;;;24.45;8.03;;;;;;;4.75;100.00;101694.63;1404104;99;21079;-87
2022/12/30 01:19:02;;;;;;;21.68;8.03;;;;;;;4.76;100.00;101684.28;1422053;98;21235;-88
2022/12/30 01:21:29;;;;;;;27.70;7.97;;;;;;;4.77;100.00;101685.92;1468826;94;21086;-88
2022/12/30 01:23:55;;;;;;;22.27;7.72;;;;;;;4.76;100.00;101684.77;1507750;94;21113;-88
2022/12/30 01:26:21;;;;;;;19.37;8.30;;;;;;;4.73;100.00;101683.30;1507219;94;22466;-88
2022/12/30 01:28:47;;;;;;;20.00;7.67;;;;;;;4.69;100.00;101679.38;1508128;94;21134;-88
2022/12/30 01:31:14;;;;;;;23.10;7.00;;;;;;;4.69;100.00;101679.90;1548598;89;21577;-88
2022/12/30 01:33:40;;;;;;;22.10;7.50;;;;;;;4.67;100.00;101676.08;1609142;88;21115;-88
2022/12/30 01:36:07;;;;;;;17.30;7.33;;;;;;;4.65;100.00;101675.98;1617841;88;21127;-87
2022/12/30 01:38:34;;;;;;;20.85;6.42;;;;;;;4.63;100.00;101683.34;1615704;88;21619;-87
2022/12/30 01:41:00;;;;;;;14.28;6.37;;;;;;;4.61;100.00;101682.19;1605136;88;20996;-87
2022/12/30 01:43:46;;;;;;;16.70;6.00;;;;;;;4.60;100.00;101688.55;1591268;88;21201;-88
2022/12/30 01:46:20;;;;;;;18.20;6.47;;;;;;;4.59;100.00;101684.73;1610662;88;21048;-88
2022/12/30 01:48:49;;;;;;;20.48;6.53;;;;;;;4.58;100.00;101685.25;1598911;89;21015;-87
2022/12/30 01:51:20;;;;;;;19.73;7.15;;;;;;;4.61;100.00;101694.20;1599418;89;21542;-87
2022/12/30 01:53:50;;;;;;;19.42;7.50;;;;;;;4.61;100.00;101688.05;1520746;94;21065;-88
2022/12/30 01:56:38;;;;;;;19.95;7.67;;;;;;;4.56;100.00;101689.97;1506902;92;21348;-88
2022/12/30 01:59:14;;;;;;;19.27;7.67;;;;;;;4.53;100.00;101693.84;1460131;96;21191;-87
2022/12/30 02:01:42;;;;;;;24.98;8.53;;;;;;;4.51;100.00;101685.20;1478784;95;21334;-87
2022/12/30 02:04:13;;;;;;;21.10;8.33;;;;;;;4.51;100.00;101693.20;1481244;95;21261;-88
2022/12/30 02:06:59;;;;;;;24.30;8.35;;;;;;;4.51;100.00;101690.54;1482575;95;21630;-88
2022/12/30 02:09:28;;;;;;;19.20;7.78;;;;;;;4.51;100.00;101692.39;1483800;95;21418;-90
2022/12/30 02:11:57;;;;;;;24.43;7.83;;;;;;;4.50;100.00;101692.05;1487433;95;21140;-88
2022/12/30 02:14:28;;;;;;;20.72;7.37;;;;;;;4.50;100.00;101696.91;1481142;95;21090;-88
2022/12/30 02:17:14;;;;;;;17.67;6.30;;;;;;;4.50;100.00;101694.23;1471842;95;21798;-88
2022/12/30 02:20:19;;;;;;;18.32;6.25;;;;;;;4.53;100.00;101699.19;1483038;95;21490;-87
2022/12/30 02:23:27;;;;;;;21.93;6.00;;;;;;;4.54;100.00;101702.68;1480816;95;21146;-86
2022/12/30 02:26:16;;;;;;;19.98;5.70;;;;;;;4.56;100.00;101701.98;1475736;95;21114;-87
2022/12/30 02:29:29;;;;;;;16.25;6.37;;;;;;;4.56;100.00;101701.98;1474987;95;21064;-87
2022/12/30 02:32:35;;;;;;;13.30;5.17;;;;;;;4.57;100.00;101701.47;1449579;98;21633;-90
2022/12/30 02:35:21;;;;;;;14.83;5.25;;;;;;;4.58;100.00;101701.78;1389983;101;22444;-87
2022/12/30 02:38:01;;;;;;;19.23;5.72;;;;;;;4.60;100.00;101701.91;1416634;99;21180;-88
2022/12/30 02:46:25;;;;;;;15.25;5.70;;;;;;;4.66;100.00;101706.98;1432808;98;21148;-86
2022/12/30 02:48:55;;;;;;;11.53;5.30;;;;;;;4.67;100.00;101705.95;1442734;97;21631;-87
2022/12/30 02:54:08;;;;;;;14.15;5.62;;;;;;;4.70;100.00;101712.24;1446287;97;21510;-87
2022/12/30 02:56:34;;;;;;;19.07;5.85;;;;;;;4.73;100.00;101713.19;1443039;96;21225;-87
2022/12/30 03:05:18;;;;;;;14.98;6.22;;;;;;;4.77;100.00;101714.47;1482497;94;21089;-88
2022/12/30 03:08:07;;;;;;;17.37;6.20;;;;;;;4.79;100.00;101712.41;1494377;94;21080;-87
2022/12/30 03:14:16;;;;;;;18.98;6.67;;;;;;;4.81;100.00;101709.05;1485312;94;21154;-88
2022/12/30 03:16:52;;;;;;;16.80;6.35;;;;;;;4.84;100.00;101711.33;1482060;95;21469;-87
2022/12/30 03:19:22;;;;;;;24.00;7.70;;;;;;;4.86;100.00;101715.98;1489273;94;21174;-86
2022/12/30 03:21:52;;;;;;;16.90;6.85;;;;;;;4.89;100.00;101706.24;1488543;94;21233;-86
2022/12/30 03:27:12;;;;;;;18.75;7.08;;;;;;;4.92;100.00;101715.20;1487888;95;21335;-84
2022/12/30 03:29:46;;;;;;;26.00;8.13;;;;;;;4.93;100.00;101720.84;1487583;95;21186;-87
2022/12/30 03:32:16;;;;;;;26.37;8.13;;;;;;;4.95;100.00;101717.48;1528917;92;21168;-86
2022/12/30 03:34:43;;;;;;;25.45;8.35;;;;;;;4.98;100.00;101718.94;1528633;93;21040;-86
2022/12/30 03:37:35;;;;;;;25.00;8.15;;;;;;;5.00;100.00;101720.40;1533729;92;21053;-87
2022/12/30 03:40:15;;;;;;;24.23;7.90;;;;;;;5.04;100.00;101720.83;1556600;89;21097;-86
2022/12/30 03:42:44;;;;;;;25.15;8.50;;;;;;;5.06;100.00;101723.28;1580668;89;21063;-86
2022/12/30 03:45:11;;;;;;;20.80;7.47;;;;;;;5.09;100.00;101725.57;1584541;89;21600;-87
2022/12/30 03:47:37;;;;;;;23.57;8.60;;;;;;;5.09;100.00;101724.23;1586393;90;21615;-87
2022/12/30 03:50:04;;;;;;;33.48;8.18;;;;;;;5.10;100.00;101716.04;1584573;89;21563;-86
2022/12/30 03:52:30;;;;;;;21.50;7.45;;;;;;;5.12;100.00;101711.84;1591545;89;21138;-86
2022/12/30 03:54:57;;;;;;;20.65;7.92;;;;;;;5.13;100.00;101715.64;1586270;89;21566;-86
2022/12/30 03:57:23;;;;;;;21.42;7.00;;;;;;;5.13;100.00;101715.64;1587935;89;21161;-86
2022/12/30 03:59:49;;;;;;;23.12;7.78;;;;;;;5.13;100.00;101717.50;1583179;89;21133;-85
2022/12/30 04:02:15;;;;;;;20.95;7.37;;;;;;;5.14;100.00;101720.47;1583936;90;21801;-86
2022/12/30 04:04:41;;;;;;;22.48;7.22;;;;;;;5.14;100.00;101712.45;1582740;89;21137;-85
2022/12/30 04:07:08;;;;;;;23.25;6.80;;;;;;;5.14;100.00;101713.80;1589666;90;21106;-85
2022/12/30 04:09:34;;;;;;;19.12;6.97;;;;;;;5.16;100.00;101712.58;1586674;89;22798;-86
2022/12/30 04:12:01;;;;;;;20.40;6.83;;;;;;;5.16;100.00;101709.09;1586297;89;21034;-86
2022/12/30 04:14:27;;;;;;;22.40;7.10;;;;;;;5.17;100.00;101712.06;1645872;84;21036;-86
2022/12/30 04:16:53;;;;;;;20.72;8.30;;;;;;;5.18;100.00;101709.73;1680601;83;21698;-85
2022/12/30 04:19:19;;;;;;;19.00;7.42;;;;;;;5.21;100.00;101713.34;1688730;83;21151;-85
2022/12/30 04:21:46;;;;;;;19.23;6.83;;;;;;;5.23;100.00;101716.14;1683099;84;21176;-86
2022/12/30 04:24:12;;;;;;;21.55;7.33;;;;;;;5.22;100.00;101714.98;1691495;84;21131;-86
2022/12/30 04:26:38;;;;;;;24.55;7.08;;;;;;;5.24;100.00;101712.95;1683325;84;21039;-84
2022/12/30 04:29:04;;;;;;;21.50;6.50;;;;;;;5.28;100.00;101713.38;1684032;83;21523;-85
2022/12/30 04:31:31;;;;;;;21.10;7.00;;;;;;;5.27;100.00;101718.41;1697456;83;20999;-85
2022/12/30 04:33:57;;;;;;;18.87;6.78;;;;;;;5.30;100.00;101720.69;1694812;83;21171;-83
2022/12/30 04:36:23;;;;;;;20.23;6.83;;;;;;;5.30;100.00;101716.16;1685328;83;20957;-85
2022/12/30 04:38:50;;;;;;;25.62;7.37;;;;;;;5.32;100.00;101719.96;1689068;83;21028;-86
2022/12/30 04:41:18;;;;;;;22.00;7.87;;;;;;;5.33;100.00;101725.64;1682959;83;21070;-86
2022/12/30 04:43:44;;;;;;;20.20;7.72;;;;;;;5.32;100.00;101724.79;1683656;83;21050;-86
2022/12/30 04:46:10;;;;;;;19.20;7.75;;;;;;;5.33;100.00;101722.45;1684268;84;21095;-85
2022/12/30 04:48:37;;;;;;;22.62;8.00;;;;;;;5.36;100.00;101722.06;1681932;84;21117;-88
2022/12/30 04:51:03;;;;;;;21.55;8.65;;;;;;;5.38;100.00;101728.04;1687609;83;21003;-86
2022/12/30 04:53:30;;;;;;;28.35;8.78;;;;;;;5.39;100.00;101724.33;1680156;83;21066;-85
2022/12/30 04:55:57;;;;;;;25.30;9.05;;;;;;;5.40;100.00;101721.14;1681771;84;21547;-86
2022/12/30 04:58:25;;;;;;;24.55;9.50;;;;;;;5.40;100.00;101729.16;1680982;84;21105;-86
2022/12/30 05:00:53;;;;;;;24.85;9.60;;;;;;;5.40;100.00;101721.97;1742414;81;21091;-85
2022/12/30 05:03:19;;;;;;;26.80;8.68;;;;;;;5.40;100.00;101728.64;1747653;81;21043;-83
2022/12/30 05:05:47;;;;;;;30.52;9.83;;;;;;;5.43;100.00;101727.43;1743390;81;20987;-88
2022/12/30 05:08:13;;;;;;;34.65;11.55;;;;;;;5.42;100.00;101718.59;1742517;82;21112;-85
2022/12/30 05:10:40;;;;;;;35.88;12.63;;;;;;;5.43;100.00;101724.75;1738159;82;21116;-85
2022/12/30 05:13:06;;;;;;;35.08;13.25;;;;;;;5.44;100.00;101727.25;1741146;82;21019;-85
2022/12/30 05:15:33;;;;;;;34.80;12.28;;;;;;;5.49;100.00;101731.16;1741891;82;21063;-85
2022/12/30 05:17:59;;;;;;;40.10;13.18;;;;;;;5.49;100.00;101733.84;1746613;81;21487;-84
2022/12/30 05:20:25;;;;;;;36.90;12.47;;;;;;;5.49;100.00;101727.97;1742878;81;21046;-85
2022/12/30 05:22:52;;;;;;;31.52;12.15;;;;;;;5.51;100.00;101733.14;1743864;81;21123;-85
2022/12/30 05:28:04;;;;;;;34.90;11.75;;;;;;;5.55;100.00;101735.72;1743863;82;20975;-86
2022/12/30 05:30:30;;;;;;;34.05;11.48;;;;;;;5.53;100.00;101725.72;1719048;82;21042;-86
2022/12/30 05:32:57;;;;;;;36.33;11.75;;;;;;;5.54;100.00;101732.74;1719752;82;21054;-84
2022/12/30 05:35:23;;;;;;;30.48;11.88;;;;;;;5.56;100.00;101736.02;1710904;82;21072;-85
2022/12/30 05:37:49;;;;;;;25.82;9.93;;;;;;;5.55;100.00;101735.20;1716069;82;21062;-84
2022/12/30 05:40:16;;;;;;;27.87;10.95;;;;;;;5.57;100.00;101729.67;1715937;82;21617;-85
2022/12/30 05:42:42;;;;;;;23.90;9.40;;;;;;;5.56;100.00;101732.86;1711840;82;21023;-85
2022/12/30 05:45:09;;;;;;;29.15;9.95;;;;;;;5.58;100.00;101733.98;1708253;83;21188;-83
2022/12/30 05:47:36;;;;;;;28.75;9.65;;;;;;;5.56;100.00;101734.20;1713267;82;21103;-85
2022/12/30 05:50:02;;;;;;;19.07;8.38;;;;;;;5.56;100.00;101739.55;1710915;83;21095;-85
2022/12/30 05:52:29;;;;;;;29.15;8.95;;;;;;;5.56;100.00;101738.69;1712044;82;21653;-84
2022/12/30 05:54:56;;;;;;;24.98;9.40;;;;;;;5.54;100.00;101742.09;1715336;82;21149;-90
2022/12/30 05:57:22;;;;;;;34.50;11.18;;;;;;;5.55;100.00;101745.08;1709038;82;21209;-85
2022/12/30 05:59:49;;;;;;;29.35;10.70;;;;;;;5.56;100.00;101739.55;1710721;82;21186;-86
2022/12/30 06:02:16;;;;;;;36.40;12.23;;;;;;;5.56;100.00;101743.55;1712650;82;21094;-86
2022/12/30 06:04:42;;;;;;;28.20;10.10;;;;;;;5.56;100.00;101742.22;1718986;82;21257;-84
2022/12/30 06:07:08;;;;;;;32.85;10.50;;;;;;;5.57;100.00;101741.70;1712893;82;21241;-86
2022/12/30 06:09:35;;;;;;;30.75;10.93;;;;;;;5.59;100.00;101742.30;1719293;82;20995;-86
2022/12/30 06:12:01;;;;;;;30.40;11.28;;;;;;;5.65;100.00;101738.87;1715863;82;21070;-86
2022/12/30 06:14:27;;;;;;;33.55;11.65;;;;;;;5.66;100.00;101735.16;1709945;82;21899;-86
2022/12/30 06:16:54;;;;;;;31.50;10.85;;;;;;;5.65;100.00;101743.70;1714042;82;21154;-85
2022/12/30 06:19:20;;;;;;;30.10;10.23;;;;;;;5.68;100.00;101740.62;1710428;82;21109;-84
2022/12/30 06:21:46;;;;;;;25.52;9.68;;;;;;;5.70;100.00;101749.25;1710515;83;21199;-83
2022/12/30 06:24:12;;;;;;;31.65;10.32;;;;;;;5.73;100.00;101745.87;1710473;82;21618;-84
2022/12/30 06:26:39;;;;;;;32.13;11.08;;;;;;;5.77;100.00;101745.30;1717809;81;21578;-83
2022/12/30 06:29:05;;;;;;;32.25;11.25;;;;;;;5.82;100.00;101740.66;1740080;82;21042;-88
2022/12/30 06:31:32;;;;;;;37.53;13.18;;;;;;;5.91;100.00;101743.47;1739211;82;20991;-85
2022/12/30 06:33:58;;;;;;;34.40;12.18;;;;;;;6.03;100.00;101739.25;1742121;81;21038;-85
2022/12/30 06:36:24;;;;;;;25.95;10.68;;;;;;;6.39;100.00;101749.32;1743914;81;21998;-85
2022/12/30 06:38:51;;;;;;;27.45;10.65;;;;;;;6.60;100.00;101746.45;1744469;81;21606;-86
2022/12/30 06:41:17;;;;;;;27.15;9.68;;;;;;;6.86;100.00;101747.50;1747013;81;21569;-86
2022/12/30 06:43:43;;;;;;;21.55;9.10;;;;;;;7.00;100.00;101748.63;1749007;81;20936;-85
2022/12/30 06:46:09;;;;;;;28.92;9.88;;;;;;;7.00;100.00;101749.13;1742496;82;21574;-86
2022/12/30 06:48:36;;;;;;;21.17;8.75;;;;;;;6.95;100.00;101750.28;1747504;81;21139;-85
2022/12/30 06:51:03;;;;;;;30.75;8.73;;;;;;;7.02;100.00;101747.88;1745236;81;20998;-85
2022/12/30 06:53:29;;;;;;;22.45;7.10;;;;;;;7.07;100.00;101752.64;1746957;82;21043;-86
2022/12/30 06:55:56;;;;;;;19.20;6.90;;;;;;;7.04;100.00;101751.71;1742393;81;21019;-85
2022/12/30 06:58:22;;;;;;;18.40;5.90;;;;;;;7.02;100.00;101741.70;1749151;81;20972;-84
2022/12/30 07:00:49;;;;;;;15.43;5.70;;;;;;;7.19;100.00;101746.95;1747730;81;21825;-81
2022/12/30 07:03:15;;;;;;;12.95;5.30;;;;;;;7.20;100.00;101748.58;1739784;82;21476;-83
2022/12/30 07:05:41;;;;;;;15.75;5.30;;;;;;;7.34;100.00;101745.89;1736977;80;20984;-84
2022/12/30 07:08:08;;;;;;;37.10;12.47;;;;;;;7.45;100.00;101746.59;1751183;80;21666;-84
2022/12/30 07:10:34;;;;;;;73.30;20.50;;;;;;;7.92;100.00;101748.59;1730027;81;21003;-84
2022/12/30 07:13:00;;;;;;;122.17;41.25;;;;;;;8.23;100.00;101746.97;1732653;80;21110;-83
2022/12/30 07:15:26;;;;;;;19.45;6.25;;;;;;;8.86;100.00;101753.70;1739791;81;20999;-85
2022/12/30 08:43:50;;;;;;;16.75;5.33;;;;;;;10.49;100.00;101748.72;1797689;79;22502;-87
2022/12/30 08:46:18;;;;;;;14.33;4.72;;;;;;;10.60;100.00;101745.23;1750289;81;21070;-87
2022/12/30 08:48:45;;;;;;;14.55;4.72;;;;;;;10.67;100.00;101743.23;1737623;81;21000;-87
2022/12/30 08:51:12;;;;;;;15.23;4.30;;;;;;;10.90;100.00;101735.71;1741077;80;22133;-89
2022/12/30 08:53:39;;;;;;;15.15;4.83;;;;;;;11.08;100.00;101733.42;1755934;81;21024;-90
2022/12/30 08:56:15;;;;;;;12.80;4.85;;;;;;;11.23;100.00;101729.72;1757009;81;20968;-87
2022/12/30 08:58:42;;;;;;;17.02;5.12;;;;;;;11.28;100.00;101724.44;1756992;81;21070;-86
2022/12/30 09:01:18;;;;;;;17.57;5.30;;;;;;;11.32;100.00;101729.67;1753535;81;21081;-88
2022/12/30 09:03:46;;;;;;;10.95;4.75;;;;;;;11.12;100.00;101733.27;1737781;81;21036;-89
2022/12/30 09:06:15;;;;;;;14.78;5.17;;;;;;;10.92;100.00;101724.17;1756738;81;21030;-88
2022/12/30 09:08:42;;;;;;;15.45;5.45;;;;;;;10.84;100.00;101724.52;1757080;81;21066;-85
2022/12/30 09:11:13;;;;;;;17.12;5.58;;;;;;;10.82;100.00;101719.87;1756697;81;21063;-89
2022/12/30 09:13:40;;;;;;;16.02;5.22;;;;;;;10.82;100.00;101722.03;1746005;81;21083;-89
2022/12/30 09:16:10;;;;;;;14.13;5.30;;;;;;;10.69;100.00;101719.58;1746023;82;21014;-89
2022/12/30 09:18:37;;;;;;;15.68;5.37;;;;;;;10.53;100.00;101721.59;1746427;82;21050;-91
2022/12/30 09:21:04;;;;;;;14.35;5.60;;;;;;;10.46;100.00;101727.09;1746033;82;21031;-89
2022/12/30 09:23:30;;;;;;;17.98;6.30;;;;;;;10.39;100.00;101726.38;1746332;81;21002;-90
2022/12/30 09:25:57;;;;;;;15.75;5.47;;;;;;;10.35;100.00;101719.30;1746430;82;21078;-89
2022/12/30 09:28:24;;;;;;;16.45;5.75;;;;;;;10.24;100.00;101710.61;1745950;82;21047;-87
2022/12/30 09:30:50;;;;;;;17.52;5.90;;;;;;;10.18;100.00;101712.34;1746333;81;21108;-90
2022/12/30 09:33:17;;;;;;;12.33;5.15;;;;;;;10.11;100.00;101713.48;1746271;82;21063;-89
2022/12/30 09:35:43;;;;;;;17.37;4.62;;;;;;;10.00;100.00;101707.84;1746283;82;21018;-90
2022/12/30 09:38:10;;;;;;;13.58;4.72;;;;;;;9.90;100.00;101716.16;1746296;82;21887;-90
2022/12/30 09:40:56;;;;;;;12.65;4.37;;;;;;;9.86;100.00;101717.14;1746058;82;21094;-90
2022/12/30 09:43:37;;;;;;;12.45;5.17;;;;;;;9.71;100.00;101713.50;1736490;82;21110;-86
2022/12/30 09:46:14;;;;;;;14.40;4.37;;;;;;;9.65;100.00;101710.38;1702800;84;21127;-89
2022/12/30 09:49:03;;;;;;;14.90;4.90;;;;;;;9.69;100.00;101710.20;1700254;84;21058;-90
2022/12/30 09:51:40;;;;;;;13.40;5.47;;;;;;;9.64;100.00;101706.02;1653417;86;21110;-89
2022/12/30 09:54:14;;;;;;;12.65;4.70;;;;;;;9.61;100.00;101706.47;1630458;87;21118;-85
2022/12/30 11:14:43;;;;;;;19.92;7.42;;;;;;;6.83;100.00;101657.64;1850478;75;23248;-89
2022/12/30 11:17:29;;;;;;;16.60;6.37;;;;;;;6.93;100.00;101665.25;1825921;78;21483;-87
2022/12/30 11:20:00;;;;;;;20.90;6.03;;;;;;;7.09;100.00;101665.30;1744663;81;21220;-86
2022/12/30 11:22:28;;;;;;;17.40;6.10;;;;;;;7.19;100.00;101664.36;1627402;88;21071;-87
2022/12/30 11:25:33;;;;;;;20.82;6.17;;;;;;;7.26;100.00;101663.32;1627502;88;21560;-87
2022/12/30 11:28:04;;;;;;;20.62;5.65;;;;;;;7.40;100.00;101664.60;1564339;91;21061;-87
2022/12/30 11:30:37;;;;;;;15.15;6.22;;;;;;;7.50;100.00;101659.63;1535996;93;21180;-88
2022/12/30 11:33:24;;;;;;;20.12;6.08;;;;;;;7.55;100.00;101655.77;1555126;92;21126;-89
2022/12/30 11:35:53;;;;;;;20.70;7.15;;;;;;;7.63;100.00;101654.70;1559931;92;21026;-88
2022/12/30 11:38:40;;;;;;;19.82;6.47;;;;;;;7.66;100.00;101649.73;1513730;93;21634;-87
2022/12/30 11:41:20;;;;;;;25.02;6.20;;;;;;;7.73;100.00;101653.22;1444646;98;21143;-86
2022/12/30 11:44:00;;;;;;;15.00;5.50;;;;;;;7.83;100.00;101655.42;1442515;99;21176;-87
2022/12/30 11:46:38;;;;;;;14.45;5.25;;;;;;;7.90;100.00;101656.20;1386789;103;21176;-86
2022/12/30 11:49:17;;;;;;;10.98;5.05;;;;;;;7.91;100.00;101651.65;1379818;104;21019;-87
2022/12/30 11:51:48;;;;;;;17.65;6.42;;;;;;;7.92;100.00;101653.31;1346198;106;21184;-86
2022/12/30 11:54:21;;;;;;;22.35;6.90;;;;;;;7.95;100.00;101645.64;1332120;107;21190;-87
2022/12/30 11:56:58;;;;;;;19.20;5.22;;;;;;;7.98;100.00;101645.73;1332529;106;21159;-86
2022/12/30 11:59:32;;;;;;;19.62;5.67;;;;;;;7.99;100.00;101651.40;1341391;104;21242;-86
2022/12/30 12:02:05;;;;;;;19.92;6.08;;;;;;;7.97;100.00;101649.44;1307663;108;21186;-87
2022/12/30 12:04:40;;;;;;;19.10;6.08;;;;;;;8.00;100.00;101651.72;1322612;107;21193;-90
2022/12/30 12:07:25;;;;;;;16.85;5.85;;;;;;;8.02;100.00;101647.46;1326142;107;21136;-87
2022/12/30 12:10:23;;;;;;;15.85;5.47;;;;;;;8.00;100.00;101651.72;1303413;109;21162;-86
2022/12/30 12:12:56;;;;;;;13.90;5.35;;;;;;;7.96;100.00;101647.28;1315577;109;21188;-86
2022/12/30 12:15:48;;;;;;;20.00;5.55;;;;;;;7.96;100.00;101643.25;1312994;107;21184;-87
2022/12/30 12:18:37;;;;;;;18.70;6.17;;;;;;;8.02;100.00;101650.14;1256441;113;21673;-87
2022/12/30 12:21:25;;;;;;;15.48;5.53;;;;;;;8.00;100.00;101646.84;1256860;113;21689;-85
2022/12/30 12:24:05;;;;;;;19.07;6.70;;;;;;;8.00;100.00;101645.01;1281764;111;21125;-87
2022/12/30 12:27:06;;;;;;;20.10;6.80;;;;;;;8.00;100.00;101642.81;1289590;108;21959;-88
2022/12/30 12:29:34;;;;;;;20.82;6.97;;;;;;;8.01;100.00;101648.52;1273721;112;21655;-87
2022/12/30 12:32:31;;;;;;;19.20;6.58;;;;;;;8.02;100.00;101643.44;1273812;111;21171;-87
2022/12/30 12:35:26;;;;;;;18.42;6.85;;;;;;;8.01;100.00;101649.33;1273828;112;21210;-87
2022/12/30 12:38:06;;;;;;;16.95;5.83;;;;;;;8.00;100.00;101651.72;1288664;109;21185;-87
2022/12/30 12:41:02;;;;;;;13.78;5.25;;;;;;;8.01;100.00;101656.04;1309576;108;21812;-85
2022/12/30 12:43:42;;;;;;;18.60;6.15;;;;;;;8.02;100.00;101649.63;1356805;105;21188;-87
2022/12/30 12:46:29;;;;;;;14.65;6.05;;;;;;;8.00;100.00;101645.01;1374747;100;21278;-86
2022/12/30 13:00:12;;;;;;;19.23;5.15;;;;;;;7.99;100.00;101640.66;1484245;95;21116;-87
2022/12/30 13:03:15;;;;;;;15.70;5.53;;;;;;;7.94;100.00;101641.33;1504094;95;21081;-87
2022/12/30 13:06:17;;;;;;;12.07;5.17;;;;;;;7.90;100.00;101641.44;1559165;87;21439;-87
2022/12/30 13:09:15;;;;;;;16.27;4.92;;;;;;;7.89;100.00;101648.38;1587245;90;21527;-88
2022/12/30 13:12:05;;;;;;;23.95;5.33;;;;;;;7.86;100.00;101638.89;1587526;90;21186;-87
2022/12/30 13:14:37;;;;;;;16.55;5.92;;;;;;;7.87;100.00;101642.39;1580637;90;21140;-86
2022/12/30 13:17:23;;;;;;;10.93;5.40;;;;;;;7.89;100.00;101643.83;1520280;93;21134;-87
2022/12/30 13:19:57;;;;;;;21.35;6.53;;;;;;;7.91;100.00;101642.25;1517386;94;21112;-87
2022/12/30 13:22:34;;;;;;;20.82;7.28;;;;;;;7.91;100.00;101639.57;1496706;94;21102;-83
2022/12/30 13:25:06;;;;;;;17.67;7.05;;;;;;;7.92;100.00;101639.89;1518793;93;21616;-86
2022/12/30 13:27:34;;;;;;;14.73;6.47;;;;;;;7.92;100.00;101639.89;1497867;95;21140;-86
2022/12/30 13:30:02;;;;;;;15.80;6.05;;;;;;;7.92;100.00;101642.05;1497743;95;21116;-86
2022/12/30 13:32:52;;;;;;;18.62;6.65;;;;;;;7.91;100.00;101640.42;1497795;95;21127;-86
2022/12/30 13:35:57;;;;;;;18.52;6.47;;;;;;;7.91;100.00;101633.70;1495481;95;21107;-87
2022/12/30 13:39:07;;;;;;;24.92;7.67;;;;;;;7.93;100.00;101624.08;1496079;95;21156;-85
2022/12/30 13:42:01;;;;;;;24.92;8.03;;;;;;;7.98;100.00;101620.23;1497742;95;21091;-87
2022/12/30 13:44:36;;;;;;;;;;;;;;;7.98;100.00;101618.08;1454157;97;21639;-87
2022/12/30 13:47:05;;;;;;;99.20;35.60;;;;;;;7.94;100.00;101618.52;1491306;95;20185;-86
2022/12/30 13:49:35;;;;;;;201.35;69.77;;;;;;;7.92;100.00;101617.89;1497920;95;21091;-88
2022/12/30 13:52:06;;;;;;;228.37;79.53;;;;;;;7.90;100.00;101615.12;1497944;94;21242;-87
2022/12/30 13:54:34;;;;;;;335.68;121.37;;;;;;;7.89;100.00;101610.28;1497839;95;21087;-86
2022/12/30 13:57:05;;;;;;;124.18;43.78;;;;;;;7.88;100.00;101605.12;1497800;95;21112;-90
2022/12/30 13:59:50;;;;;;;195.68;69.53;;;;;;;7.85;100.00;101609.08;1496358;94;21064;-89
2022/12/30 14:02:24;;;;;;;133.27;50.20;;;;;;;7.83;100.00;101601.76;1495644;95;21255;-86
2022/12/30 14:04:55;;;;;;;150.53;56.65;;;;;;;7.82;100.00;101598.75;1504766;93;21232;-88
2022/12/30 14:07:46;;;;;;;62.40;23.05;;;;;;;7.82;100.00;101600.62;1506056;95;21579;-85
2022/12/30 14:10:21;;;;;;;48.13;18.57;;;;;;;7.77;100.00;101590.55;1506386;94;21098;-91
2022/12/30 14:12:56;;;;;;;38.17;14.47;;;;;;;7.71;100.00;101600.28;1508319;88;21118;-89
2022/12/30 14:15:46;;;;;;;37.53;13.35;;;;;;;7.70;100.00;101595.12;1557608;90;21507;-90
2022/12/30 14:18:48;;;;;;;33.67;12.05;;;;;;;7.66;100.00;101593.39;1570411;90;21166;-91
2022/12/30 14:21:21;;;;;;;31.85;11.53;;;;;;;7.61;100.00;101597.23;1585682;88;21042;-86
2022/12/30 14:23:54;;;;;;;37.63;11.75;;;;;;;7.58;100.00;101593.64;1611310;88;21138;-86
2022/12/30 14:26:27;;;;;;;;;;;;;;;7.56;100.00;101594.39;1621095;87;21089;-87
2022/12/30 14:28:57;;;;;;;33.95;10.88;;;;;;;7.56;100.00;101586.84;1618627;87;20193;-87
2022/12/30 14:31:47;;;;;;;35.00;12.28;;;;;;;7.50;100.00;101589.37;1560207;92;21324;-87
2022/12/30 14:34:40;;;;;;;45.80;13.50;;;;;;;7.48;100.00;101583.39;1559811;92;21067;-85
2022/12/30 14:37:14;;;;;;;45.88;14.30;;;;;;;7.45;100.00;101577.11;1560209;92;21113;-86
2022/12/30 14:39:43;;;;;;;45.90;14.40;;;;;;;7.40;100.00;101574.24;1560007;92;21137;-86
2022/12/30 14:42:28;;;;;;;45.55;13.68;;;;;;;7.34;100.00;101579.65;1559670;92;21165;-86
2022/12/30 14:45:01;;;;;;;34.03;11.95;;;;;;;7.30;100.00;101576.58;1534740;93;21192;-88
2022/12/30 14:47:46;;;;;;;37.55;12.93;;;;;;;7.25;100.00;101573.19;1532791;93;21098;-86
2022/12/30 14:50:16;;;;;;;34.65;12.47;;;;;;;7.23;100.00;101579.27;1533398;93;21115;-91
2022/12/30 14:52:59;;;;;;;34.65;11.22;;;;;;;7.25;100.00;101585.25;1465362;96;21147;-87
2022/12/30 14:55:30;;;;;;;34.30;11.85;;;;;;;7.24;100.00;101587.64;1442262;98;21590;-87
2022/12/30 14:58:18;;;;;;;33.05;12.28;;;;;;;7.25;100.00;101581.75;1422032;99;21218;-88
2022/12/30 15:00:48;;;;;;;50.55;16.00;;;;;;;7.28;100.00;101584.00;1421873;99;21152;-86
2022/12/30 15:03:19;;;;;;;47.50;16.55;;;;;;;7.31;100.00;101586.26;1426935;96;21635;-88
2022/12/30 15:05:58;;;;;;;63.23;19.70;;;;;;;7.30;100.00;101589.17;1491437;95;21611;-88
2022/12/30 15:08:39;;;;;;;42.45;14.70;;;;;;;7.28;100.00;101588.84;1495699;95;21148;-85
2022/12/30 15:11:17;;;;;;;40.55;13.35;;;;;;;7.26;100.00;101597.64;1509993;93;21109;-88
2022/12/30 15:13:55;;;;;;;33.15;12.07;;;;;;;7.26;100.00;101598.12;1508191;93;21093;-88
2022/12/30 15:16:25;;;;;;;39.58;14.43;;;;;;;7.24;100.00;101606.92;1508092;93;21706;-87
2022/12/30 15:18:57;;;;;;;37.80;13.48;;;;;;;7.25;100.00;101600.52;1508479;93;21042;-88
2022/12/30 15:21:30;;;;;;;37.28;13.83;;;;;;;7.23;100.00;101606.08;1508697;93;21607;-87
2022/12/30 15:24:04;;;;;;;40.20;12.95;;;;;;;7.25;100.00;101609.90;1508500;93;21314;-88
2022/12/30 15:26:38;;;;;;;31.85;12.50;;;;;;;7.25;100.00;101608.03;1508130;93;21095;-87
2022/12/30 15:29:08;;;;;;;36.68;13.03;;;;;;;7.28;100.00;101605.45;1465321;97;21605;-85
2022/12/30 15:31:35;;;;;;;53.60;17.15;;;;;;;7.34;100.00;101606.46;1462669;97;21764;-86
2022/12/30 15:34:06;;;;;;;49.18;17.30;;;;;;;7.34;100.00;101597.08;1499275;91;21147;-87